createdAt,value
2022-09-21T00:00:45.231Z,100861.84
2022-09-21T00:03:45.661Z,100861.38
2022-09-21T00:06:59.575Z,100862.85
2022-09-21T00:09:40.388Z,100865.69
2022-09-21T00:12:51.171Z,100870.41
2022-09-21T00:15:48.728Z,100870.16
2022-09-21T00:18:32.065Z,100868.63
2022-09-21T00:21:16.327Z,100866.06
2022-09-21T00:23:59.861Z,100867.10
2022-09-21T00:26:42.807Z,100864.68
2022-09-21T00:29:32.085Z,100864.36
2022-09-21T00:32:13.522Z,100864.55
2022-09-21T00:34:50.845Z,100868.91
2022-09-21T00:37:22.486Z,100872.05
2022-09-21T00:40:06.434Z,100870.89
2022-09-21T00:42:51.064Z,100871.30
2022-09-21T00:45:35.849Z,100880.00
2022-09-21T00:48:08.900Z,100882.09
2022-09-21T00:51:00.996Z,100879.99
2022-09-21T00:54:27.915Z,100884.52
2022-09-21T00:58:19.932Z,100886.89
2022-09-21T01:01:01.478Z,100883.86
2022-09-21T01:04:17.978Z,100883.34
2022-09-21T01:07:47.840Z,100882.72
2022-09-21T01:11:21.691Z,100881.87
2022-09-21T01:15:48.248Z,100882.45
2022-09-21T01:19:03.118Z,100887.66
2022-09-21T01:22:35.307Z,100889.33
2022-09-21T01:25:33.784Z,100895.02
2022-09-21T01:29:25.800Z,100897.62
2022-09-21T01:32:29.788Z,100895.41
2022-09-21T01:35:25.323Z,100897.04
2022-09-21T01:38:13.059Z,100900.03
2022-09-21T01:41:19.802Z,100899.67
2022-09-21T01:44:22.928Z,100902.13
2022-09-21T01:47:13.117Z,100903.85
2022-09-21T01:49:52.797Z,100905.85
2022-09-21T01:53:39.271Z,100904.89
2022-09-21T01:56:27.434Z,100900.19
2022-09-21T01:59:52.711Z,100905.98
2022-09-21T02:02:52.737Z,100905.88
2022-09-21T02:05:43.020Z,100907.35
2022-09-21T02:08:35.718Z,100901.73
2022-09-21T02:11:58.205Z,100905.02
2022-09-21T02:15:05.823Z,100907.48
2022-09-21T02:18:50.867Z,100908.14
2022-09-21T02:22:41.420Z,100907.64
2022-09-21T02:26:18.212Z,100913.81
2022-09-21T02:30:33.601Z,100913.15
2022-09-21T02:34:19.746Z,100913.84
2022-09-21T02:37:40.258Z,100913.83
2022-09-21T02:40:56.419Z,100915.88
2022-09-21T02:44:42.528Z,100912.77
2022-09-21T02:48:25.972Z,100912.52
2022-09-21T02:52:29.432Z,100914.27
2022-09-21T03:05:10.907Z,100928.67
2022-09-21T03:08:01.856Z,100934.60
2022-09-21T03:11:07.116Z,100936.34
2022-09-21T03:13:46.095Z,100940.88
2022-09-21T03:16:33.944Z,100942.86
2022-09-21T03:19:16.894Z,100946.26
2022-09-21T03:22:11.164Z,100948.41
2022-09-21T03:25:17.517Z,100948.23
2022-09-21T03:27:55.776Z,100944.02
2022-09-21T03:30:48.253Z,100946.25
2022-09-21T03:33:52.360Z,100946.23
2022-09-21T03:37:01.011Z,100947.61
2022-09-21T03:39:51.030Z,100952.64
2022-09-21T03:42:33.547Z,100955.35
2022-09-21T03:46:03.733Z,100958.92
2022-09-21T03:49:06.800Z,100962.48
2022-09-21T03:51:45.027Z,100964.84
2022-09-21T03:54:33.323Z,100965.26
2022-09-21T03:57:38.882Z,100962.83
2022-09-21T04:00:46.603Z,100965.48
2022-09-21T04:03:36.342Z,100973.57
2022-09-21T04:06:49.625Z,100974.93
2022-09-21T04:09:46.411Z,100975.06
2022-09-21T04:12:53.302Z,100979.34
2022-09-21T04:15:47.482Z,100983.09
2022-09-21T04:18:26.956Z,100984.59
2022-09-21T04:21:31.276Z,100986.77
2022-09-21T04:25:09.565Z,100983.31
2022-09-21T04:28:12.377Z,100991.09
2022-09-21T04:31:47.821Z,100995.89
2022-09-21T04:34:54.272Z,100993.65
2022-09-21T04:38:04.648Z,100996.41
2022-09-21T04:41:06.263Z,100997.77
2022-09-21T04:44:26.060Z,100999.17
2022-09-21T04:48:06.925Z,101002.52
2022-09-21T04:52:14.781Z,101003.95
2022-09-21T04:56:25.231Z,101002.64
2022-09-21T05:08:30.119Z,101002.88
2022-09-21T05:11:45.890Z,101008.02
2022-09-21T05:14:50.263Z,101010.23
2022-09-21T05:18:01.989Z,101016.09
2022-09-21T05:21:37.816Z,101019.37
2022-09-21T05:28:44.372Z,101017.02
2022-09-21T05:31:58.767Z,101019.21
2022-09-21T05:39:01.808Z,101022.77
2022-09-21T05:42:01.877Z,101025.58
2022-09-21T05:51:58.701Z,101029.41
2022-09-21T05:56:05.266Z,101030.69
2022-09-21T05:59:55.796Z,101036.19
2022-09-21T06:03:08.020Z,101039.88
2022-09-21T06:05:53.792Z,101041.77
2022-09-21T06:09:11.967Z,101040.92
2022-09-21T06:12:02.090Z,101039.94
2022-09-21T06:14:55.373Z,101045.48
2022-09-21T06:18:18.231Z,101047.60
2022-09-21T06:21:12.128Z,101049.84
2022-09-21T06:24:28.023Z,101053.14
2022-09-21T06:27:17.543Z,101057.52
2022-09-21T06:31:01.519Z,101058.98
2022-09-21T06:33:31.691Z,101062.71
2022-09-21T06:36:25.665Z,101062.80
2022-09-21T06:39:07.728Z,101062.96
2022-09-21T06:42:05.236Z,101061.85
2022-09-21T06:44:49.893Z,101062.49
2022-09-21T06:47:26.117Z,101061.61
2022-09-21T06:50:13.241Z,101055.50
2022-09-21T06:52:52.270Z,101058.77
2022-09-21T06:55:36.653Z,101063.31
2022-09-21T06:58:22.906Z,101064.93
2022-09-21T07:01:17.996Z,101065.05
2022-09-21T07:04:05.052Z,101066.77
2022-09-21T07:07:12.690Z,101071.50
2022-09-21T07:10:13.158Z,101074.70
2022-09-21T07:13:07.971Z,101075.33
2022-09-21T07:15:54.582Z,101072.25
2022-09-21T07:18:42.583Z,101074.33
2022-09-21T07:21:23.846Z,101079.52
2022-09-21T07:23:56.929Z,101081.06
2022-09-21T07:26:29.427Z,101079.86
2022-09-21T07:32:36.714Z,101081.44
2022-09-21T07:35:13.728Z,101088.46
2022-09-21T07:38:05.167Z,101091.95
2022-09-21T07:41:09.347Z,101091.17
2022-09-21T07:48:47.109Z,101091.48
2022-09-21T07:51:24.205Z,101101.70
2022-09-21T07:54:04.658Z,101101.23
2022-09-21T07:56:52.298Z,101102.02
2022-09-21T08:00:08.462Z,101104.98
2022-09-21T08:03:24.543Z,101099.27
2022-09-21T08:06:30.774Z,101101.39
2022-09-21T08:09:27.974Z,101104.59
2022-09-21T08:12:55.944Z,101100.02
2022-09-21T08:16:20.613Z,101096.11
2022-09-21T08:23:18.902Z,101096.16
2022-09-21T08:26:49.122Z,101096.75
2022-09-21T08:30:37.221Z,101096.94
2022-09-21T08:33:38.191Z,101094.90
2022-09-21T08:36:10.708Z,101094.33
2022-09-21T08:38:49.556Z,101096.90
2022-09-21T08:41:27.137Z,101097.46
2022-09-21T08:44:27.145Z,101096.29
2022-09-21T08:47:25.744Z,101094.22
2022-09-21T08:50:04.623Z,101096.23
2022-09-21T08:53:00.145Z,101096.59
2022-09-21T08:56:06.177Z,101102.79
2022-09-21T08:59:00.601Z,101104.60
2022-09-21T09:02:08.798Z,101104.80
2022-09-21T09:05:21.190Z,101108.34
2022-09-21T09:08:16.741Z,101107.55
2022-09-21T09:11:26.608Z,101101.88
2022-09-21T09:14:21.478Z,101101.00
2022-09-21T09:17:19.048Z,101098.98
2022-09-21T09:20:13.070Z,101096.09
2022-09-21T09:23:29.886Z,101089.81
2022-09-21T09:26:51.404Z,101084.21
2022-09-21T09:30:26.595Z,101085.60
2022-09-21T09:34:22.887Z,101086.05
2022-09-21T09:37:10.654Z,101087.70
2022-09-21T09:39:42.615Z,101084.52
2022-09-21T09:42:41.228Z,101085.35
2022-09-21T09:48:54.265Z,101094.39
2022-09-21T09:51:30.833Z,101096.48
2022-09-21T09:54:20.505Z,101093.36
2022-09-21T09:56:56.964Z,101096.09
2022-09-21T10:00:23.977Z,101092.73
2022-09-21T10:03:04.089Z,101093.87
2022-09-21T10:05:38.874Z,101088.79
2022-09-21T10:08:50.329Z,101086.63
2022-09-21T10:11:59.096Z,101081.70
2022-09-21T10:14:38.047Z,101074.84
2022-09-21T10:17:22.532Z,101073.66
2022-09-21T10:20:21.304Z,101071.21
2022-09-21T10:23:14.534Z,101070.70
2022-09-21T10:25:54.839Z,101070.22
2022-09-21T10:28:29.911Z,101073.61
2022-09-21T10:31:25.167Z,101078.16
2022-09-21T10:34:13.587Z,101073.39
2022-09-21T10:36:56.087Z,101069.30
2022-09-21T10:39:28.577Z,101068.10
2022-09-21T10:42:26.663Z,101066.52
2022-09-21T10:45:25.118Z,101074.21
2022-09-21T10:48:15.216Z,101077.15
2022-09-21T10:50:54.221Z,101075.25
2022-09-21T10:53:32.793Z,101071.52
2022-09-21T10:56:17.619Z,101079.06
2022-09-21T10:59:42.006Z,101086.56
2022-09-21T11:02:33.239Z,101087.22
2022-09-21T11:05:20.029Z,101082.25
2022-09-21T11:08:22.911Z,101072.98
2022-09-21T11:11:41.974Z,101070.61
2022-09-21T11:14:23.045Z,101074.53
2022-09-21T11:17:10.215Z,101074.73
2022-09-21T11:19:57.979Z,101073.55
2022-09-21T11:22:45.710Z,101072.89
2022-09-21T11:25:48.835Z,101072.33
2022-09-21T11:29:27.926Z,101069.63
2022-09-21T11:32:19.412Z,101067.69
2022-09-21T11:35:27.119Z,101069.83
2022-09-21T11:38:30.945Z,101071.78
2022-09-21T11:41:42.837Z,101067.77
2022-09-21T11:44:29.791Z,101063.88
2022-09-21T11:47:43.222Z,101063.88
2022-09-21T11:50:33.582Z,101062.48
2022-09-21T11:53:29.274Z,101059.62
2022-09-21T11:56:54.462Z,101057.54
2022-09-21T11:59:55.390Z,101047.34
2022-09-21T12:05:42.321Z,101042.56
2022-09-21T12:08:43.858Z,101039.38
2022-09-21T12:11:56.198Z,101036.23
2022-09-21T12:14:43.700Z,101040.55
2022-09-21T12:18:10.266Z,101038.55
2022-09-21T12:21:19.990Z,101039.35
2022-09-21T12:24:13.152Z,101037.01
2022-09-21T12:27:20.008Z,101032.86
2022-09-21T12:30:16.603Z,101030.07
2022-09-21T12:32:52.231Z,101029.24
2022-09-21T12:38:38.114Z,101019.19
2022-09-21T12:41:53.685Z,101018.70
2022-09-21T12:45:03.169Z,101015.30
2022-09-21T12:51:06.419Z,101018.50
2022-09-21T12:53:52.950Z,101020.36
2022-09-21T12:56:38.531Z,101016.73
2022-09-21T12:59:39.389Z,101017.52
2022-09-21T13:02:47.911Z,101015.29
2022-09-21T13:09:30.567Z,101014.24
2022-09-21T13:12:44.941Z,101019.35
2022-09-21T13:15:37.965Z,101027.29
2022-09-21T13:18:35.138Z,101024.15
2022-09-21T13:21:27.049Z,101027.16
2022-09-21T13:24:11.498Z,101028.77
2022-09-21T13:27:05.394Z,101031.30
2022-09-21T13:30:43.564Z,101030.70
2022-09-21T13:33:23.721Z,101030.29
2022-09-21T13:36:39.313Z,101028.95
2022-09-21T13:39:26.098Z,101028.67
2022-09-21T13:42:50.251Z,101021.90
2022-09-21T13:45:39.858Z,101021.42
2022-09-21T13:48:28.911Z,101013.71
2022-09-21T13:51:14.409Z,101010.59
2022-09-21T13:54:14.543Z,101013.30
2022-09-21T13:57:12.661Z,101010.94
2022-09-21T13:59:47.037Z,101012.23
2022-09-21T14:03:05.814Z,101007.73
2022-09-21T14:06:42.577Z,101008.77
2022-09-21T14:09:49.646Z,101007.52
2022-09-21T14:13:04.295Z,101008.70
2022-09-21T14:15:43.549Z,101010.88
2022-09-21T14:18:38.364Z,101008.97
2022-09-21T14:21:25.690Z,101010.00
2022-09-21T14:25:03.779Z,101008.56
2022-09-21T14:28:13.835Z,101005.44
2022-09-21T14:30:57.103Z,101001.49
2022-09-21T14:33:49.359Z,101000.32
2022-09-21T14:36:55.613Z,101000.99
2022-09-21T14:39:44.605Z,100998.17
2022-09-21T14:42:37.548Z,100997.84
2022-09-21T14:45:23.633Z,100998.96
2022-09-21T14:48:38.407Z,100998.83
2022-09-21T14:52:12.597Z,100996.32
2022-09-21T14:55:25.104Z,100998.63
2022-09-21T14:58:25.099Z,100999.42
2022-09-21T15:01:26.100Z,100993.17
2022-09-21T15:04:10.144Z,100993.35
2022-09-21T15:07:12.684Z,100992.54
2022-09-21T15:10:34.629Z,100991.92
2022-09-21T15:13:36.703Z,100991.95
2022-09-21T15:16:24.238Z,100991.44
2022-09-21T15:19:27.207Z,100997.61
2022-09-21T15:22:22.847Z,100998.84
2022-09-21T15:25:03.224Z,100999.77
2022-09-21T15:27:46.352Z,101008.41
2022-09-21T15:30:36.370Z,101018.18
2022-09-21T15:33:22.131Z,101028.06
2022-09-21T15:36:15.232Z,101026.61
2022-09-21T15:38:52.955Z,101038.43
2022-09-21T15:41:47.777Z,101038.58
2022-09-21T15:44:42.976Z,101040.14
2022-09-21T15:47:20.328Z,101039.11
2022-09-21T15:50:01.674Z,101035.52
2022-09-21T15:52:43.071Z,101031.97
2022-09-21T15:55:23.190Z,101035.75
2022-09-21T15:57:57.801Z,101038.41
2022-09-21T16:00:39.030Z,101039.10
2022-09-21T16:03:21.438Z,101036.44
2022-09-21T16:05:54.717Z,101037.05
2022-09-21T16:08:36.134Z,101037.23
2022-09-21T16:11:35.469Z,101032.42
2022-09-21T16:14:39.543Z,101038.62
2022-09-21T16:17:27.904Z,101040.44
2022-09-21T16:20:13.915Z,101048.17
2022-09-21T16:22:47.867Z,101047.74
2022-09-21T16:25:20.250Z,101048.27
2022-09-21T16:28:06.277Z,101045.20
2022-09-21T16:30:53.171Z,101048.97
2022-09-21T16:33:46.632Z,101047.48
2022-09-21T16:37:23.840Z,101050.78
2022-09-21T16:39:35.266Z,101051.47
2022-09-21T16:42:06.104Z,101057.60
2022-09-21T16:44:41.252Z,101058.50
2022-09-21T16:47:25.765Z,101059.52
2022-09-21T16:50:01.713Z,101060.56
2022-09-21T16:52:31.655Z,101059.77
2022-09-21T16:55:01.321Z,101062.98
2022-09-21T16:57:30.696Z,101064.48
2022-09-21T17:00:00.235Z,101068.48
2022-09-21T17:02:31.676Z,101068.67
2022-09-21T17:05:02.336Z,101069.23
2022-09-21T17:07:34.356Z,101072.77
2022-09-21T17:10:15.157Z,101071.27
2022-09-21T17:12:47.956Z,101070.36
2022-09-21T17:15:20.207Z,101066.41
2022-09-21T17:18:05.132Z,101070.67
2022-09-21T17:20:46.053Z,101075.09
2022-09-21T17:23:25.968Z,101077.06
2022-09-21T17:26:04.920Z,101079.65
2022-09-21T17:28:58.596Z,101078.00
2022-09-21T17:31:55.541Z,101081.14
2022-09-21T17:34:53.690Z,101086.98
2022-09-21T17:37:51.025Z,101091.90
2022-09-21T17:40:39.941Z,101094.17
2022-09-21T17:43:22.586Z,101098.59
2022-09-21T17:46:15.727Z,101098.66
2022-09-21T17:48:46.136Z,101099.01
2022-09-21T17:51:38.143Z,101098.92
2022-09-21T17:54:08.285Z,101100.45
2022-09-21T17:57:12.986Z,101101.19
2022-09-21T17:59:48.866Z,101101.27
2022-09-21T18:02:26.421Z,101099.92
2022-09-21T18:05:09.430Z,101095.80
2022-09-21T18:07:41.026Z,101096.36
2022-09-21T18:10:25.160Z,101098.68
2022-09-21T18:13:07.812Z,101102.84
2022-09-21T18:16:12.770Z,101108.84
2022-09-21T18:18:58.509Z,101109.91
2022-09-21T18:21:29.331Z,101108.10
2022-09-21T18:24:33.011Z,101110.23
2022-09-21T18:27:16.711Z,101108.09
2022-09-21T18:29:53.847Z,101106.33
2022-09-21T18:32:51.531Z,101110.06
2022-09-21T18:35:56.593Z,101107.38
2022-09-21T18:39:14.515Z,101109.80
2022-09-21T18:41:59.259Z,101114.35
2022-09-21T18:44:50.225Z,101115.86
2022-09-21T18:47:33.793Z,101117.16
2022-09-21T18:50:20.203Z,101120.52
2022-09-21T18:53:26.355Z,101121.98
2022-09-21T18:56:03.579Z,101122.14
2022-09-21T18:58:39.718Z,101121.38
2022-09-21T19:01:19.088Z,101121.45
2022-09-21T19:03:49.914Z,101125.05
2022-09-21T19:06:55.343Z,101125.66
2022-09-21T19:10:04.149Z,101124.96
2022-09-21T19:13:28.536Z,101121.33
2022-09-21T19:16:07.496Z,101121.56
2022-09-21T19:18:49.427Z,101124.47
2022-09-21T19:22:03.490Z,101123.55
2022-09-21T19:24:43.355Z,101121.15
2022-09-21T19:27:40.821Z,101118.27
2022-09-21T19:30:16.791Z,101121.61
2022-09-21T19:33:00.812Z,101117.98
2022-09-21T19:35:36.828Z,101119.60
2022-09-21T19:38:10.537Z,101120.66
2022-09-21T19:40:53.156Z,101118.84
2022-09-21T19:43:42.489Z,101124.58
2022-09-21T19:46:34.211Z,101123.42
2022-09-21T19:49:18.250Z,101122.47
2022-09-21T19:51:53.557Z,101119.09
2022-09-21T19:54:45.413Z,101120.89
2022-09-21T19:57:38.251Z,101120.95
2022-09-21T20:00:14.536Z,101119.25
2022-09-21T20:03:16.971Z,101118.84
2022-09-21T20:06:22.297Z,101120.46
2022-09-21T20:09:24.044Z,101122.33
2022-09-21T20:12:13.730Z,101121.12
2022-09-21T20:15:08.049Z,101122.63
2022-09-21T20:18:02.983Z,101120.52
2022-09-21T20:20:32.414Z,101124.16
2022-09-21T20:23:03.188Z,101126.40
2022-09-21T20:26:00.100Z,101122.91
2022-09-21T20:28:29.832Z,101127.61
2022-09-21T20:30:59.724Z,101128.95
2022-09-21T20:33:31.694Z,101126.95
2022-09-21T20:36:02.791Z,101127.99
2022-09-21T20:38:34.604Z,101129.55
2022-09-21T20:41:05.204Z,101130.94
2022-09-21T20:43:35.526Z,101129.07
2022-09-21T20:46:08.435Z,101127.73
2022-09-21T20:48:41.426Z,101130.15
2022-09-21T20:51:11.619Z,101131.36
2022-09-21T20:53:43.543Z,101128.77
2022-09-21T20:56:16.168Z,101131.02
2022-09-21T20:58:46.144Z,101128.33
2022-09-21T21:01:27.301Z,101128.69
2022-09-21T21:04:13.262Z,101133.39
2022-09-21T21:06:47.864Z,101138.94
2022-09-21T21:09:19.884Z,101140.82
2022-09-21T21:11:52.703Z,101140.63
2022-09-21T21:14:26.199Z,101140.33
2022-09-21T21:16:55.690Z,101142.27
2022-09-21T21:19:35.276Z,101140.55
2022-09-21T21:22:05.620Z,101139.17
2022-09-21T21:24:44.119Z,101141.06
2022-09-21T21:27:27.351Z,101140.52
2022-09-21T21:30:01.316Z,101141.54
2022-09-21T21:32:38.954Z,101140.05
2022-09-21T21:35:09.383Z,101139.63
2022-09-21T21:37:46.075Z,101140.80
2022-09-21T21:40:20.738Z,101139.39
2022-09-21T21:42:58.801Z,101142.79
2022-09-21T21:45:30.883Z,101141.02
2022-09-21T21:48:00.483Z,101143.20
2022-09-21T21:50:29.635Z,101142.96
2022-09-21T21:52:58.874Z,101140.09
2022-09-21T21:55:28.484Z,101138.20
2022-09-21T21:57:57.703Z,101135.23
2022-09-21T22:00:27.062Z,101133.98
2022-09-21T22:02:56.937Z,101130.83
2022-09-21T22:05:26.327Z,101129.80
2022-09-21T22:07:55.380Z,101131.92
2022-09-21T22:10:25.004Z,101136.52
2022-09-21T22:12:57.328Z,101140.20
2022-09-21T22:15:26.859Z,101142.47
2022-09-21T22:17:56.225Z,101145.27
2022-09-21T22:20:25.435Z,101145.13
2022-09-21T22:22:54.939Z,101142.70
2022-09-21T22:25:28.634Z,101140.59
2022-09-21T22:27:57.965Z,101138.31
2022-09-21T22:30:27.098Z,101139.52
2022-09-21T22:32:56.488Z,101138.61
2022-09-21T22:35:25.622Z,101135.84
2022-09-21T22:37:56.143Z,101137.41
2022-09-21T22:40:25.365Z,101133.89
2022-09-21T22:42:54.590Z,101139.10
2022-09-21T22:45:26.592Z,101142.57
2022-09-21T22:47:55.823Z,101145.33
2022-09-21T22:50:25.869Z,101145.10
2022-09-21T22:52:55.332Z,101138.45
2022-09-21T22:55:25.047Z,101138.39
2022-09-21T22:57:54.032Z,101137.81
2022-09-21T23:00:23.078Z,101138.09
2022-09-21T23:02:57.281Z,101130.92
2022-09-21T23:05:26.962Z,101127.98
2022-09-21T23:07:56.844Z,101129.33
2022-09-21T23:10:27.284Z,101128.89
2022-09-21T23:12:58.463Z,101127.91
2022-09-21T23:15:29.839Z,101123.67
2022-09-21T23:17:58.949Z,101123.20
2022-09-21T23:20:28.147Z,101123.02
2022-09-21T23:22:57.814Z,101123.77
2022-09-21T23:25:27.100Z,101131.45
2022-09-21T23:27:57.444Z,101132.19
2022-09-21T23:30:26.518Z,101131.53
2022-09-21T23:32:55.664Z,101130.02
2022-09-21T23:35:24.791Z,101125.91
2022-09-21T23:37:54.060Z,101124.38
2022-09-21T23:40:24.661Z,101125.81
2022-09-21T23:42:53.713Z,101126.75
2022-09-21T23:45:23.041Z,101126.30
2022-09-21T23:47:52.086Z,101123.59
2022-09-21T23:50:21.225Z,101119.40
2022-09-21T23:52:50.305Z,101118.23
2022-09-21T23:55:19.324Z,101116.77
2022-09-21T23:57:48.495Z,101118.78
